Aérodrome :
LOGIN :

S'inscrire | Disclaimer

   EN    FR    IT 

 










Légende :    VFR   VFR Marginal   IFR   IFR Intensif   IFR Très Intensif
Visi : 
Plafond : 
>= 8 km
>= 3000ft
5 à 8 km
1000 à 3000 ft
1500m à 5 km
500 à 1000 ft
800 à 1500m
200 à 500 ft
< 800m
< 200 ft
Symboles :   Orages  Brouillard  Fortes neiges  Fortes précipitations  Vent > 20 kt
SIGMETs :   Divers  Orages  Givrage  Turbulence  Onde Orograph.  Cendres Volcan.







- Altitude de l'aérodrome : 412 ft
- Code IATA : ORE
- Voir les cartes d'approche


LFOJ - Orleans

DERNIER METAR :
  • 200100Z AUTO 29004KT 3100 DZ BR OVC002 07/07 Q1013

METARs EXPIRÉS :
  • 200030Z AUTO 25004KT 3500 DZ BR OVC003 07/07 Q1013
  • 200000Z AUTO 22003KT 4200 -RA BR OVC004 07/07 Q1014
  • 192330Z AUTO 22004KT 3300 -RA BR OVC004/// ///TCU 07/07 Q1014
  • 192300Z AUTO 22005KT 3600 DZ BR OVC003 06/06 Q1014
  • 192230Z AUTO 21004KT 3600 DZ BR OVC002 06/06 Q1014

TAF TAF LFOJ
Valide du 19 à 15h jusqu'au 20 à 15h UTC


191400Z 1915/2015 20005KT 9999 FEW009 OVC015
TEMPO 1915/2012 4000 -RA BKN008 OVC015
PROB40
TEMPO 1918/2009 1000 DZRA OVC002 BKN010
BECMG 2003/2006 02010KT
TEMPO 2012/2015 4000 -RA
Pas de NOTAMs connus pour ce terrain.



MET'MAP, la Météo Aéronautique d'un coup d'oeil ! - Copyright ORBIFLY Décembre 2007 - Disclaimer

ORBIFLY MET'MAP TEAM :

Programmation & Développement : Alexandra Zaïnal
Conception & Développement : Baudouin d'Aumeries
Co-Programmation & Développement : Marc-Olivier Méhu
Soutien technique & logistique : Manuel Goepfert

Contact : metmap@orbifly.com




SOURCES & CREDITS :

   NOAA